sensor_id;sensor_type;location;lat;lon;timestamp;P1;durP1;ratioP1;P2;durP2;ratioP2
16928;SDS011;8581;47.334;11.190;2023-05-14T00:01:41;16.23;;;1.77;;
16928;SDS011;8581;47.334;11.190;2023-05-14T00:04:13;30.40;;;2.53;;
16928;SDS011;8581;47.334;11.190;2023-05-14T00:06:45;10.37;;;1.53;;
16928;SDS011;8581;47.334;11.190;2023-05-14T00:09:16;1.77;;;1.00;;
16928;SDS011;8581;47.334;11.190;2023-05-14T00:11:48;4.60;;;1.30;;
16928;SDS011;8581;47.334;11.190;2023-05-14T00:14:19;3.53;;;1.83;;
16928;SDS011;8581;47.334;11.190;2023-05-14T00:16:51;6.63;;;1.73;;
16928;SDS011;8581;47.334;11.190;2023-05-14T00:19:23;3.33;;;1.50;;
16928;SDS011;8581;47.334;11.190;2023-05-14T00:21:54;1.70;;;1.53;;
16928;SDS011;8581;47.334;11.190;2023-05-14T00:24:26;1.20;;;1.20;;
16928;SDS011;8581;47.334;11.190;2023-05-14T00:26:57;1.30;;;1.20;;
16928;SDS011;8581;47.334;11.190;2023-05-14T00:29:29;2.50;;;1.30;;
16928;SDS011;8581;47.334;11.190;2023-05-14T00:32:01;1.90;;;1.17;;
16928;SDS011;8581;47.334;11.190;2023-05-14T00:34:32;2.10;;;1.23;;
16928;SDS011;8581;47.334;11.190;2023-05-14T00:37:04;3.63;;;1.20;;
16928;SDS011;8581;47.334;11.190;2023-05-14T00:39:35;4.93;;;1.00;;
16928;SDS011;8581;47.334;11.190;2023-05-14T00:42:07;4.47;;;1.10;;
16928;SDS011;8581;47.334;11.190;2023-05-14T00:44:39;2.37;;;1.10;;
16928;SDS011;8581;47.334;11.190;2023-05-14T00:47:10;1.03;;;1.00;;
16928;SDS011;8581;47.334;11.190;2023-05-14T00:49:42;6.87;;;1.13;;
16928;SDS011;8581;47.334;11.190;2023-05-14T00:52:14;5.53;;;0.90;;
16928;SDS011;8581;47.334;11.190;2023-05-14T00:54:45;0.80;;;0.70;;
16928;SDS011;8581;47.334;11.190;2023-05-14T00:57:17;1.07;;;0.90;;
16928;SDS011;8581;47.334;11.190;2023-05-14T00:59:48;15.23;;;1.30;;
16928;SDS011;8581;47.334;11.190;2023-05-14T01:02:20;19.80;;;1.17;;
16928;SDS011;8581;47.334;11.190;2023-05-14T01:04:51;8.07;;;1.20;;
16928;SDS011;8581;47.334;11.190;2023-05-14T01:07:29;6.20;;;1.07;;
16928;SDS011;8581;47.334;11.190;2023-05-14T01:09:59;17.23;;;1.50;;
16928;SDS011;8581;47.334;11.190;2023-05-14T01:13:12;0.80;;;0.80;;
16928;SDS011;8581;47.334;11.190;2023-05-14T01:15:33;1.30;;;1.10;;
16928;SDS011;8581;47.334;11.190;2023-05-14T01:18:06;1.00;;;1.00;;
16928;SDS011;8581;47.334;11.190;2023-05-14T01:20:37;1.20;;;1.20;;
16928;SDS011;8581;47.334;11.190;2023-05-14T01:23:09;1.00;;;1.00;;
16928;SDS011;8581;47.334;11.190;2023-05-14T01:25:40;1.20;;;1.00;;
16928;SDS011;8581;47.334;11.190;2023-05-14T01:28:16;0.97;;;0.97;;
16928;SDS011;8581;47.334;11.190;2023-05-14T01:30:51;1.30;;;1.20;;
16928;SDS011;8581;47.334;11.190;2023-05-14T01:33:20;1.80;;;1.70;;
16928;SDS011;8581;47.334;11.190;2023-05-14T01:35:52;1.50;;;1.40;;
16928;SDS011;8581;47.334;11.190;2023-05-14T01:38:24;1.27;;;1.27;;
16928;SDS011;8581;47.334;11.190;2023-05-14T01:40:55;1.30;;;1.20;;
16928;SDS011;8581;47.334;11.190;2023-05-14T01:43:27;0.90;;;0.90;;
16928;SDS011;8581;47.334;11.190;2023-05-14T01:45:58;1.87;;;1.00;;
16928;SDS011;8581;47.334;11.190;2023-05-14T01:48:30;0.93;;;0.93;;
16928;SDS011;8581;47.334;11.190;2023-05-14T01:51:02;1.00;;;1.00;;
16928;SDS011;8581;47.334;11.190;2023-05-14T01:53:33;1.00;;;0.90;;
16928;SDS011;8581;47.334;11.190;2023-05-14T01:56:05;0.87;;;0.87;;
16928;SDS011;8581;47.334;11.190;2023-05-14T01:58:37;1.00;;;1.00;;
16928;SDS011;8581;47.334;11.190;2023-05-14T02:01:08;0.87;;;0.87;;
16928;SDS011;8581;47.334;11.190;2023-05-14T02:03:40;0.87;;;0.87;;
16928;SDS011;8581;47.334;11.190;2023-05-14T02:06:11;0.70;;;0.70;;
16928;SDS011;8581;47.334;11.190;2023-05-14T02:08:43;0.70;;;0.70;;
16928;SDS011;8581;47.334;11.190;2023-05-14T02:11:15;0.80;;;0.80;;
16928;SDS011;8581;47.334;11.190;2023-05-14T02:13:46;0.70;;;0.70;;
16928;SDS011;8581;47.334;11.190;2023-05-14T02:16:18;0.60;;;0.60;;
16928;SDS011;8581;47.334;11.190;2023-05-14T02:18:49;1.27;;;1.17;;
16928;SDS011;8581;47.334;11.190;2023-05-14T02:21:21;0.77;;;0.77;;
16928;SDS011;8581;47.334;11.190;2023-05-14T02:23:53;0.80;;;0.80;;
16928;SDS011;8581;47.334;11.190;2023-05-14T02:26:24;0.60;;;0.60;;
16928;SDS011;8581;47.334;11.190;2023-05-14T02:28:56;0.70;;;0.70;;
16928;SDS011;8581;47.334;11.190;2023-05-14T02:31:27;0.80;;;0.80;;
16928;SDS011;8581;47.334;11.190;2023-05-14T02:34:00;0.70;;;0.70;;
16928;SDS011;8581;47.334;11.190;2023-05-14T02:36:31;0.60;;;0.60;;
16928;SDS011;8581;47.334;11.190;2023-05-14T02:39:03;0.70;;;0.70;;
16928;SDS011;8581;47.334;11.190;2023-05-14T02:41:34;0.77;;;0.77;;
16928;SDS011;8581;47.334;11.190;2023-05-14T02:44:06;0.70;;;0.70;;
16928;SDS011;8581;47.334;11.190;2023-05-14T02:46:37;0.83;;;0.83;;
16928;SDS011;8581;47.334;11.190;2023-05-14T02:49:09;0.70;;;0.70;;
16928;SDS011;8581;47.334;11.190;2023-05-14T02:51:41;1.77;;;0.63;;
16928;SDS011;8581;47.334;11.190;2023-05-14T02:54:12;0.80;;;0.80;;
16928;SDS011;8581;47.334;11.190;2023-05-14T02:56:44;0.80;;;0.80;;
16928;SDS011;8581;47.334;11.190;2023-05-14T02:59:15;0.90;;;0.90;;
16928;SDS011;8581;47.334;11.190;2023-05-14T03:01:47;0.90;;;0.83;;
16928;SDS011;8581;47.334;11.190;2023-05-14T03:04:19;0.70;;;0.70;;
16928;SDS011;8581;47.334;11.190;2023-05-14T03:06:50;0.90;;;0.90;;
16928;SDS011;8581;47.334;11.190;2023-05-14T03:09:22;0.73;;;0.73;;
16928;SDS011;8581;47.334;11.190;2023-05-14T03:11:53;0.93;;;0.90;;
16928;SDS011;8581;47.334;11.190;2023-05-14T03:14:25;1.00;;;0.90;;
16928;SDS011;8581;47.334;11.190;2023-05-14T03:16:57;5.57;;;4.20;;
16928;SDS011;8581;47.334;11.190;2023-05-14T03:19:28;5.23;;;4.17;;
16928;SDS011;8581;47.334;11.190;2023-05-14T03:22:00;3.73;;;3.30;;
16928;SDS011;8581;47.334;11.190;2023-05-14T03:24:31;7.13;;;5.67;;
16928;SDS011;8581;47.334;11.190;2023-05-14T03:27:03;10.70;;;7.43;;
16928;SDS011;8581;47.334;11.190;2023-05-14T03:29:35;7.00;;;5.00;;
16928;SDS011;8581;47.334;11.190;2023-05-14T03:32:06;4.93;;;3.60;;
16928;SDS011;8581;47.334;11.190;2023-05-14T03:34:38;6.97;;;4.37;;
16928;SDS011;8581;47.334;11.190;2023-05-14T03:37:10;2.37;;;2.10;;
16928;SDS011;8581;47.334;11.190;2023-05-14T03:39:42;3.90;;;3.17;;
16928;SDS011;8581;47.334;11.190;2023-05-14T03:42:15;3.80;;;2.70;;
16928;SDS011;8581;47.334;11.190;2023-05-14T03:44:46;3.00;;;1.50;;
16928;SDS011;8581;47.334;11.190;2023-05-14T03:47:18;1.43;;;1.10;;
16928;SDS011;8581;47.334;11.190;2023-05-14T03:49:49;1.03;;;0.90;;
16928;SDS011;8581;47.334;11.190;2023-05-14T03:52:21;0.90;;;0.90;;
16928;SDS011;8581;47.334;11.190;2023-05-14T03:54:53;1.20;;;1.10;;
16928;SDS011;8581;47.334;11.190;2023-05-14T03:57:24;0.97;;;0.90;;
16928;SDS011;8581;47.334;11.190;2023-05-14T03:59:56;0.80;;;0.80;;
16928;SDS011;8581;47.334;11.190;2023-05-14T04:02:27;0.90;;;0.90;;
16928;SDS011;8581;47.334;11.190;2023-05-14T04:04:59;0.87;;;0.87;;
16928;SDS011;8581;47.334;11.190;2023-05-14T04:07:31;1.00;;;1.00;;
16928;SDS011;8581;47.334;11.190;2023-05-14T04:10:02;1.20;;;1.10;;
16928;SDS011;8581;47.334;11.190;2023-05-14T04:12:34;1.20;;;0.90;;
16928;SDS011;8581;47.334;11.190;2023-05-14T04:15:06;0.80;;;0.80;;
16928;SDS011;8581;47.334;11.190;2023-05-14T04:17:38;1.00;;;1.00;;
16928;SDS011;8581;47.334;11.190;2023-05-14T04:20:10;1.37;;;1.10;;
16928;SDS011;8581;47.334;11.190;2023-05-14T04:22:42;0.80;;;0.80;;
16928;SDS011;8581;47.334;11.190;2023-05-14T04:25:13;1.13;;;0.80;;
16928;SDS011;8581;47.334;11.190;2023-05-14T04:27:45;0.70;;;0.70;;
16928;SDS011;8581;47.334;11.190;2023-05-14T04:30:16;0.70;;;0.70;;
16928;SDS011;8581;47.334;11.190;2023-05-14T04:32:48;0.70;;;0.70;;
16928;SDS011;8581;47.334;11.190;2023-05-14T04:35:20;0.60;;;0.60;;
16928;SDS011;8581;47.334;11.190;2023-05-14T04:37:51;0.60;;;0.60;;
16928;SDS011;8581;47.334;11.190;2023-05-14T04:40:23;0.70;;;0.70;;
16928;SDS011;8581;47.334;11.190;2023-05-14T04:42:54;0.70;;;0.70;;
16928;SDS011;8581;47.334;11.190;2023-05-14T04:45:26;0.60;;;0.60;;
16928;SDS011;8581;47.334;11.190;2023-05-14T04:47:58;0.50;;;0.50;;
16928;SDS011;8581;47.334;11.190;2023-05-14T04:50:29;4.53;;;0.50;;
16928;SDS011;8581;47.334;11.190;2023-05-14T04:53:01;1.90;;;0.67;;
16928;SDS011;8581;47.334;11.190;2023-05-14T04:55:32;0.50;;;0.50;;
16928;SDS011;8581;47.334;11.190;2023-05-14T04:58:04;0.60;;;0.60;;
16928;SDS011;8581;47.334;11.190;2023-05-14T05:00:35;0.60;;;0.60;;
16928;SDS011;8581;47.334;11.190;2023-05-14T05:03:07;0.50;;;0.50;;
16928;SDS011;8581;47.334;11.190;2023-05-14T05:05:39;0.70;;;0.70;;
16928;SDS011;8581;47.334;11.190;2023-05-14T05:08:10;0.80;;;0.80;;
16928;SDS011;8581;47.334;11.190;2023-05-14T05:10:42;0.70;;;0.70;;
16928;SDS011;8581;47.334;11.190;2023-05-14T05:13:13;0.60;;;0.60;;
16928;SDS011;8581;47.334;11.190;2023-05-14T05:15:45;0.70;;;0.70;;
16928;SDS011;8581;47.334;11.190;2023-05-14T05:18:17;0.70;;;0.70;;
16928;SDS011;8581;47.334;11.190;2023-05-14T05:20:48;0.70;;;0.70;;
16928;SDS011;8581;47.334;11.190;2023-05-14T05:23:20;0.70;;;0.70;;
16928;SDS011;8581;47.334;11.190;2023-05-14T05:25:51;0.80;;;0.80;;
16928;SDS011;8581;47.334;11.190;2023-05-14T05:28:23;1.00;;;0.63;;
16928;SDS011;8581;47.334;11.190;2023-05-14T05:30:55;0.70;;;0.70;;
16928;SDS011;8581;47.334;11.190;2023-05-14T05:33:26;0.77;;;0.60;;
16928;SDS011;8581;47.334;11.190;2023-05-14T05:35:58;0.67;;;0.67;;
16928;SDS011;8581;47.334;11.190;2023-05-14T05:38:29;0.50;;;0.50;;
16928;SDS011;8581;47.334;11.190;2023-05-14T05:41:01;0.50;;;0.50;;
16928;SDS011;8581;47.334;11.190;2023-05-14T05:43:33;0.60;;;0.60;;
16928;SDS011;8581;47.334;11.190;2023-05-14T05:46:05;0.43;;;0.43;;
16928;SDS011;8581;47.334;11.190;2023-05-14T05:48:36;0.60;;;0.60;;
16928;SDS011;8581;47.334;11.190;2023-05-14T05:51:08;0.70;;;0.70;;
16928;SDS011;8581;47.334;11.190;2023-05-14T05:53:40;1.70;;;1.60;;
16928;SDS011;8581;47.334;11.190;2023-05-14T05:56:11;1.20;;;1.10;;
16928;SDS011;8581;47.334;11.190;2023-05-14T05:58:43;1.33;;;1.00;;
16928;SDS011;8581;47.334;11.190;2023-05-14T06:01:15;1.53;;;1.20;;
16928;SDS011;8581;47.334;11.190;2023-05-14T06:03:46;2.13;;;1.60;;
16928;SDS011;8581;47.334;11.190;2023-05-14T06:06:18;1.27;;;1.17;;
16928;SDS011;8581;47.334;11.190;2023-05-14T06:08:49;2.13;;;1.27;;
16928;SDS011;8581;47.334;11.190;2023-05-14T06:11:21;1.57;;;1.30;;
16928;SDS011;8581;47.334;11.190;2023-05-14T06:13:52;1.43;;;1.33;;
16928;SDS011;8581;47.334;11.190;2023-05-14T06:16:24;1.80;;;1.70;;
16928;SDS011;8581;47.334;11.190;2023-05-14T06:18:56;1.70;;;1.60;;
16928;SDS011;8581;47.334;11.190;2023-05-14T06:21:27;1.83;;;1.30;;
16928;SDS011;8581;47.334;11.190;2023-05-14T06:23:59;0.87;;;0.87;;
16928;SDS011;8581;47.334;11.190;2023-05-14T06:26:31;2.00;;;0.70;;
16928;SDS011;8581;47.334;11.190;2023-05-14T06:29:02;0.63;;;0.60;;
16928;SDS011;8581;47.334;11.190;2023-05-14T06:31:37;0.60;;;0.60;;
16928;SDS011;8581;47.334;11.190;2023-05-14T06:34:10;0.60;;;0.60;;
16928;SDS011;8581;47.334;11.190;2023-05-14T06:36:42;0.70;;;0.63;;
16928;SDS011;8581;47.334;11.190;2023-05-14T06:39:13;2.20;;;0.80;;
16928;SDS011;8581;47.334;11.190;2023-05-14T06:41:45;1.10;;;1.00;;
16928;SDS011;8581;47.334;11.190;2023-05-14T06:44:17;0.83;;;0.83;;
16928;SDS011;8581;47.334;11.190;2023-05-14T06:46:48;1.77;;;0.90;;
16928;SDS011;8581;47.334;11.190;2023-05-14T06:49:20;1.10;;;1.03;;
16928;SDS011;8581;47.334;11.190;2023-05-14T06:51:51;1.43;;;0.80;;
16928;SDS011;8581;47.334;11.190;2023-05-14T06:54:23;1.23;;;0.90;;
16928;SDS011;8581;47.334;11.190;2023-05-14T06:56:55;0.80;;;0.80;;
16928;SDS011;8581;47.334;11.190;2023-05-14T06:59:26;1.20;;;1.10;;
16928;SDS011;8581;47.334;11.190;2023-05-14T07:01:58;1.00;;;0.90;;
16928;SDS011;8581;47.334;11.190;2023-05-14T07:04:29;0.87;;;0.87;;
16928;SDS011;8581;47.334;11.190;2023-05-14T07:07:01;2.80;;;1.10;;
16928;SDS011;8581;47.334;11.190;2023-05-14T07:09:33;0.80;;;0.80;;
16928;SDS011;8581;47.334;11.190;2023-05-14T07:12:04;0.87;;;0.87;;
16928;SDS011;8581;47.334;11.190;2023-05-14T07:14:37;0.90;;;0.90;;
16928;SDS011;8581;47.334;11.190;2023-05-14T07:17:08;0.80;;;0.80;;
16928;SDS011;8581;47.334;11.190;2023-05-14T07:19:40;1.07;;;0.80;;
16928;SDS011;8581;47.334;11.190;2023-05-14T07:22:12;0.90;;;0.90;;
16928;SDS011;8581;47.334;11.190;2023-05-14T07:24:43;1.10;;;1.00;;
16928;SDS011;8581;47.334;11.190;2023-05-14T07:27:15;0.93;;;0.83;;
16928;SDS011;8581;47.334;11.190;2023-05-14T07:29:46;0.90;;;0.90;;
16928;SDS011;8581;47.334;11.190;2023-05-14T07:32:18;0.80;;;0.80;;
16928;SDS011;8581;47.334;11.190;2023-05-14T07:34:50;1.57;;;0.80;;
16928;SDS011;8581;47.334;11.190;2023-05-14T07:37:21;1.60;;;0.90;;
16928;SDS011;8581;47.334;11.190;2023-05-14T07:39:53;0.80;;;0.80;;
16928;SDS011;8581;47.334;11.190;2023-05-14T07:42:25;0.70;;;0.70;;
16928;SDS011;8581;47.334;11.190;2023-05-14T07:44:56;0.70;;;0.70;;
16928;SDS011;8581;47.334;11.190;2023-05-14T07:47:28;0.63;;;0.63;;
16928;SDS011;8581;47.334;11.190;2023-05-14T07:49:59;0.77;;;0.77;;
16928;SDS011;8581;47.334;11.190;2023-05-14T07:52:31;0.60;;;0.60;;
16928;SDS011;8581;47.334;11.190;2023-05-14T07:55:03;0.80;;;0.80;;
16928;SDS011;8581;47.334;11.190;2023-05-14T07:57:35;1.07;;;0.70;;
16928;SDS011;8581;47.334;11.190;2023-05-14T08:00:07;0.77;;;0.77;;
16928;SDS011;8581;47.334;11.190;2023-05-14T08:02:40;1.00;;;1.00;;
16928;SDS011;8581;47.334;11.190;2023-05-14T08:05:12;0.83;;;0.83;;
16928;SDS011;8581;47.334;11.190;2023-05-14T08:07:43;0.83;;;0.70;;
16928;SDS011;8581;47.334;11.190;2023-05-14T08:10:15;0.80;;;0.80;;
16928;SDS011;8581;47.334;11.190;2023-05-14T08:12:47;0.70;;;0.70;;
16928;SDS011;8581;47.334;11.190;2023-05-14T08:15:19;1.43;;;0.73;;
16928;SDS011;8581;47.334;11.190;2023-05-14T08:17:51;0.60;;;0.60;;
16928;SDS011;8581;47.334;11.190;2023-05-14T08:20:29;0.60;;;0.60;;
16928;SDS011;8581;47.334;11.190;2023-05-14T08:23:00;1.20;;;0.80;;
16928;SDS011;8581;47.334;11.190;2023-05-14T08:25:32;0.60;;;0.60;;
16928;SDS011;8581;47.334;11.190;2023-05-14T08:28:03;0.60;;;0.60;;
16928;SDS011;8581;47.334;11.190;2023-05-14T08:30:35;0.70;;;0.70;;
16928;SDS011;8581;47.334;11.190;2023-05-14T08:33:07;0.50;;;0.50;;
16928;SDS011;8581;47.334;11.190;2023-05-14T08:35:38;0.50;;;0.50;;
16928;SDS011;8581;47.334;11.190;2023-05-14T08:38:10;0.50;;;0.50;;
16928;SDS011;8581;47.334;11.190;2023-05-14T08:40:44;0.60;;;0.60;;
16928;SDS011;8581;47.334;11.190;2023-05-14T08:43:13;0.40;;;0.40;;
16928;SDS011;8581;47.334;11.190;2023-05-14T08:45:45;0.60;;;0.60;;
16928;SDS011;8581;47.334;11.190;2023-05-14T08:48:16;0.50;;;0.50;;
16928;SDS011;8581;47.334;11.190;2023-05-14T08:50:48;0.60;;;0.60;;
16928;SDS011;8581;47.334;11.190;2023-05-14T08:53:20;0.60;;;0.40;;
16928;SDS011;8581;47.334;11.190;2023-05-14T08:55:51;0.53;;;0.53;;
16928;SDS011;8581;47.334;11.190;2023-05-14T08:58:23;0.40;;;0.40;;
16928;SDS011;8581;47.334;11.190;2023-05-14T09:00:55;0.67;;;0.60;;
16928;SDS011;8581;47.334;11.190;2023-05-14T09:03:26;0.62;;;0.62;;
16928;SDS011;8581;47.334;11.190;2023-05-14T09:05:58;1.50;;;0.63;;
16928;SDS011;8581;47.334;11.190;2023-05-14T09:08:30;1.00;;;0.90;;
16928;SDS011;8581;47.334;11.190;2023-05-14T09:11:01;0.83;;;0.80;;
16928;SDS011;8581;47.334;11.190;2023-05-14T09:13:35;1.10;;;0.63;;
16928;SDS011;8581;47.334;11.190;2023-05-14T09:16:04;0.90;;;0.67;;
16928;SDS011;8581;47.334;11.190;2023-05-14T09:18:36;1.10;;;0.98;;
16928;SDS011;8581;47.334;11.190;2023-05-14T09:21:08;1.37;;;1.00;;
16928;SDS011;8581;47.334;11.190;2023-05-14T09:23:41;0.65;;;0.65;;
16928;SDS011;8581;47.334;11.190;2023-05-14T09:26:16;0.45;;;0.45;;
16928;SDS011;8581;47.334;11.190;2023-05-14T09:28:48;0.60;;;0.60;;
16928;SDS011;8581;47.334;11.190;2023-05-14T09:31:20;0.40;;;0.40;;
16928;SDS011;8581;47.334;11.190;2023-05-14T09:33:52;0.50;;;0.50;;
16928;SDS011;8581;47.334;11.190;2023-05-14T09:36:23;0.50;;;0.50;;
16928;SDS011;8581;47.334;11.190;2023-05-14T09:38:59;0.40;;;0.40;;
16928;SDS011;8581;47.334;11.190;2023-05-14T09:41:46;0.50;;;0.50;;
16928;SDS011;8581;47.334;11.190;2023-05-14T09:44:23;0.60;;;0.50;;
16928;SDS011;8581;47.334;11.190;2023-05-14T09:46:54;0.75;;;0.40;;
16928;SDS011;8581;47.334;11.190;2023-05-14T09:49:26;0.70;;;0.65;;
16928;SDS011;8581;47.334;11.190;2023-05-14T09:51:57;0.50;;;0.50;;
16928;SDS011;8581;47.334;11.190;2023-05-14T09:54:30;1.60;;;0.40;;
16928;SDS011;8581;47.334;11.190;2023-05-14T09:57:07;0.50;;;0.50;;
16928;SDS011;8581;47.334;11.190;2023-05-14T10:00:12;1.42;;;0.50;;
16928;SDS011;8581;47.334;11.190;2023-05-14T10:02:44;0.47;;;0.47;;
16928;SDS011;8581;47.334;11.190;2023-05-14T10:05:16;0.40;;;0.40;;
16928;SDS011;8581;47.334;11.190;2023-05-14T10:08:09;0.40;;;0.40;;
16928;SDS011;8581;47.334;11.190;2023-05-14T10:10:45;1.22;;;0.50;;
16928;SDS011;8581;47.334;11.190;2023-05-14T10:13:19;0.93;;;0.40;;
16928;SDS011;8581;47.334;11.190;2023-05-14T10:15:51;0.30;;;0.30;;
16928;SDS011;8581;47.334;11.190;2023-05-14T10:18:22;2.05;;;0.50;;
16928;SDS011;8581;47.334;11.190;2023-05-14T10:21:10;0.28;;;0.28;;
16928;SDS011;8581;47.334;11.190;2023-05-14T10:23:59;0.40;;;0.40;;
16928;SDS011;8581;47.334;11.190;2023-05-14T10:26:37;0.30;;;0.30;;
16928;SDS011;8581;47.334;11.190;2023-05-14T10:29:11;0.30;;;0.30;;
16928;SDS011;8581;47.334;11.190;2023-05-14T10:31:48;0.82;;;0.30;;
16928;SDS011;8581;47.334;11.190;2023-05-14T10:37:11;0.30;;;0.30;;
16928;SDS011;8581;47.334;11.190;2023-05-14T10:39:56;0.30;;;0.30;;
16928;SDS011;8581;47.334;11.190;2023-05-14T10:42:32;0.40;;;0.40;;
16928;SDS011;8581;47.334;11.190;2023-05-14T10:45:04;0.50;;;0.50;;
16928;SDS011;8581;47.334;11.190;2023-05-14T10:47:41;0.42;;;0.40;;
16928;SDS011;8581;47.334;11.190;2023-05-14T10:50:13;0.65;;;0.50;;
16928;SDS011;8581;47.334;11.190;2023-05-14T10:52:44;0.42;;;0.42;;
16928;SDS011;8581;47.334;11.190;2023-05-14T10:55:15;0.50;;;0.50;;
16928;SDS011;8581;47.334;11.190;2023-05-14T10:57:47;0.50;;;0.50;;
16928;SDS011;8581;47.334;11.190;2023-05-14T11:00:19;0.50;;;0.50;;
16928;SDS011;8581;47.334;11.190;2023-05-14T11:02:51;0.35;;;0.35;;
16928;SDS011;8581;47.334;11.190;2023-05-14T11:05:26;0.50;;;0.47;;
16928;SDS011;8581;47.334;11.190;2023-05-14T11:07:58;0.40;;;0.40;;
16928;SDS011;8581;47.334;11.190;2023-05-14T11:10:30;0.57;;;0.35;;
16928;SDS011;8581;47.334;11.190;2023-05-14T11:13:02;0.42;;;0.42;;
16928;SDS011;8581;47.334;11.190;2023-05-14T11:15:33;0.40;;;0.40;;
16928;SDS011;8581;47.334;11.190;2023-05-14T11:18:05;0.60;;;0.60;;
16928;SDS011;8581;47.334;11.190;2023-05-14T11:20:37;0.50;;;0.50;;
16928;SDS011;8581;47.334;11.190;2023-05-14T11:23:08;0.60;;;0.60;;
16928;SDS011;8581;47.334;11.190;2023-05-14T11:25:40;0.40;;;0.40;;
16928;SDS011;8581;47.334;11.190;2023-05-14T11:28:11;0.60;;;0.60;;
16928;SDS011;8581;47.334;11.190;2023-05-14T11:30:43;0.50;;;0.50;;
16928;SDS011;8581;47.334;11.190;2023-05-14T11:33:15;0.30;;;0.30;;
16928;SDS011;8581;47.334;11.190;2023-05-14T11:35:46;0.42;;;0.42;;
16928;SDS011;8581;47.334;11.190;2023-05-14T11:38:18;0.53;;;0.53;;
16928;SDS011;8581;47.334;11.190;2023-05-14T11:40:52;0.40;;;0.40;;
16928;SDS011;8581;47.334;11.190;2023-05-14T11:43:24;0.50;;;0.50;;
16928;SDS011;8581;47.334;11.190;2023-05-14T11:45:55;0.67;;;0.60;;
16928;SDS011;8581;47.334;11.190;2023-05-14T11:48:27;0.70;;;0.70;;
16928;SDS011;8581;47.334;11.190;2023-05-14T11:50:58;0.50;;;0.50;;
16928;SDS011;8581;47.334;11.190;2023-05-14T11:53:30;0.73;;;0.40;;
16928;SDS011;8581;47.334;11.190;2023-05-14T11:56:02;0.50;;;0.50;;
16928;SDS011;8581;47.334;11.190;2023-05-14T11:58:33;0.50;;;0.50;;
16928;SDS011;8581;47.334;11.190;2023-05-14T12:01:05;1.83;;;0.80;;
16928;SDS011;8581;47.334;11.190;2023-05-14T12:03:37;1.00;;;0.60;;
16928;SDS011;8581;47.334;11.190;2023-05-14T12:09:16;0.50;;;0.40;;
16928;SDS011;8581;47.334;11.190;2023-05-14T12:11:49;0.57;;;0.50;;
16928;SDS011;8581;47.334;11.190;2023-05-14T12:14:21;1.47;;;0.37;;
16928;SDS011;8581;47.334;11.190;2023-05-14T12:16:52;0.77;;;0.40;;
16928;SDS011;8581;47.334;11.190;2023-05-14T12:19:24;0.40;;;0.40;;
16928;SDS011;8581;47.334;11.190;2023-05-14T12:21:56;0.33;;;0.33;;
16928;SDS011;8581;47.334;11.190;2023-05-14T12:24:27;0.40;;;0.40;;
16928;SDS011;8581;47.334;11.190;2023-05-14T12:26:59;0.30;;;0.30;;
16928;SDS011;8581;47.334;11.190;2023-05-14T12:29:33;0.37;;;0.37;;
16928;SDS011;8581;47.334;11.190;2023-05-14T12:32:02;0.30;;;0.30;;
16928;SDS011;8581;47.334;11.190;2023-05-14T12:34:34;0.20;;;0.20;;
16928;SDS011;8581;47.334;11.190;2023-05-14T12:37:06;0.50;;;0.50;;
16928;SDS011;8581;47.334;11.190;2023-05-14T12:39:38;0.40;;;0.40;;
16928;SDS011;8581;47.334;11.190;2023-05-14T12:42:09;0.40;;;0.40;;
16928;SDS011;8581;47.334;11.190;2023-05-14T12:44:41;0.40;;;0.40;;
16928;SDS011;8581;47.334;11.190;2023-05-14T12:47:13;0.73;;;0.23;;
16928;SDS011;8581;47.334;11.190;2023-05-14T12:49:45;0.73;;;0.30;;
16928;SDS011;8581;47.334;11.190;2023-05-14T12:52:17;0.37;;;0.37;;
16928;SDS011;8581;47.334;11.190;2023-05-14T12:54:51;0.50;;;0.50;;
16928;SDS011;8581;47.334;11.190;2023-05-14T12:57:22;0.60;;;0.60;;
16928;SDS011;8581;47.334;11.190;2023-05-14T12:59:54;0.30;;;0.30;;
16928;SDS011;8581;47.334;11.190;2023-05-14T13:02:26;1.53;;;0.60;;
16928;SDS011;8581;47.334;11.190;2023-05-14T13:04:57;3.07;;;0.50;;
16928;SDS011;8581;47.334;11.190;2023-05-14T13:07:29;0.43;;;0.43;;
16928;SDS011;8581;47.334;11.190;2023-05-14T13:10:00;0.50;;;0.50;;
16928;SDS011;8581;47.334;11.190;2023-05-14T13:12:32;0.40;;;0.40;;
16928;SDS011;8581;47.334;11.190;2023-05-14T13:15:04;0.40;;;0.40;;
16928;SDS011;8581;47.334;11.190;2023-05-14T13:17:36;0.87;;;0.50;;
16928;SDS011;8581;47.334;11.190;2023-05-14T13:20:07;0.47;;;0.47;;
16928;SDS011;8581;47.334;11.190;2023-05-14T13:22:39;0.40;;;0.40;;
16928;SDS011;8581;47.334;11.190;2023-05-14T13:25:11;0.50;;;0.50;;
16928;SDS011;8581;47.334;11.190;2023-05-14T13:27:42;0.40;;;0.40;;
16928;SDS011;8581;47.334;11.190;2023-05-14T13:30:14;0.47;;;0.47;;
16928;SDS011;8581;47.334;11.190;2023-05-14T13:32:46;1.87;;;1.50;;
16928;SDS011;8581;47.334;11.190;2023-05-14T13:35:17;0.60;;;0.60;;
16928;SDS011;8581;47.334;11.190;2023-05-14T13:37:49;0.57;;;0.40;;
16928;SDS011;8581;47.334;11.190;2023-05-14T13:40:21;0.50;;;0.50;;
16928;SDS011;8581;47.334;11.190;2023-05-14T13:42:52;0.50;;;0.50;;
16928;SDS011;8581;47.334;11.190;2023-05-14T13:45:24;0.73;;;0.73;;
16928;SDS011;8581;47.334;11.190;2023-05-14T13:47:55;0.80;;;0.80;;
16928;SDS011;8581;47.334;11.190;2023-05-14T13:50:27;0.80;;;0.80;;
16928;SDS011;8581;47.334;11.190;2023-05-14T13:52:59;0.80;;;0.80;;
16928;SDS011;8581;47.334;11.190;2023-05-14T13:55:30;1.10;;;0.90;;
16928;SDS011;8581;47.334;11.190;2023-05-14T13:58:02;1.10;;;0.97;;
16928;SDS011;8581;47.334;11.190;2023-05-14T14:00:33;1.20;;;1.10;;
16928;SDS011;8581;47.334;11.190;2023-05-14T14:03:05;0.70;;;0.70;;
16928;SDS011;8581;47.334;11.190;2023-05-14T14:05:37;0.80;;;0.80;;
16928;SDS011;8581;47.334;11.190;2023-05-14T14:08:08;0.70;;;0.70;;
16928;SDS011;8581;47.334;11.190;2023-05-14T14:10:40;3.23;;;0.77;;
16928;SDS011;8581;47.334;11.190;2023-05-14T14:13:11;0.80;;;0.80;;
16928;SDS011;8581;47.334;11.190;2023-05-14T14:15:43;0.80;;;0.80;;
16928;SDS011;8581;47.334;11.190;2023-05-14T14:18:16;0.63;;;0.63;;
16928;SDS011;8581;47.334;11.190;2023-05-14T14:20:47;1.53;;;0.80;;
16928;SDS011;8581;47.334;11.190;2023-05-14T14:23:19;2.00;;;1.00;;
16928;SDS011;8581;47.334;11.190;2023-05-14T14:25:50;0.90;;;0.87;;
16928;SDS011;8581;47.334;11.190;2023-05-14T14:28:25;1.40;;;1.30;;
16928;SDS011;8581;47.334;11.190;2023-05-14T14:30:57;1.03;;;1.03;;
16928;SDS011;8581;47.334;11.190;2023-05-14T14:33:30;1.37;;;1.20;;
16928;SDS011;8581;47.334;11.190;2023-05-14T14:36:03;2.47;;;1.23;;
16928;SDS011;8581;47.334;11.190;2023-05-14T14:38:38;3.77;;;3.30;;
16928;SDS011;8581;47.334;11.190;2023-05-14T14:41:10;6.63;;;5.60;;
16928;SDS011;8581;47.334;11.190;2023-05-14T14:43:42;2.17;;;1.97;;
16928;SDS011;8581;47.334;11.190;2023-05-14T14:46:13;1.13;;;1.10;;
16928;SDS011;8581;47.334;11.190;2023-05-14T14:48:45;1.50;;;1.30;;
16928;SDS011;8581;47.334;11.190;2023-05-14T14:51:16;1.40;;;1.30;;
16928;SDS011;8581;47.334;11.190;2023-05-14T14:53:48;1.00;;;1.00;;
16928;SDS011;8581;47.334;11.190;2023-05-14T14:56:20;1.63;;;1.10;;
16928;SDS011;8581;47.334;11.190;2023-05-14T14:58:51;1.00;;;1.00;;
16928;SDS011;8581;47.334;11.190;2023-05-14T15:01:23;1.00;;;1.00;;
16928;SDS011;8581;47.334;11.190;2023-05-14T15:03:55;0.90;;;0.80;;
16928;SDS011;8581;47.334;11.190;2023-05-14T15:06:27;0.87;;;0.87;;
16928;SDS011;8581;47.334;11.190;2023-05-14T15:08:58;1.90;;;0.97;;
16928;SDS011;8581;47.334;11.190;2023-05-14T15:11:30;1.13;;;0.90;;
16928;SDS011;8581;47.334;11.190;2023-05-14T15:14:01;1.00;;;0.90;;
16928;SDS011;8581;47.334;11.190;2023-05-14T15:16:33;0.80;;;0.80;;
16928;SDS011;8581;47.334;11.190;2023-05-14T15:19:05;1.00;;;0.90;;
16928;SDS011;8581;47.334;11.190;2023-05-14T15:21:36;2.37;;;1.20;;
16928;SDS011;8581;47.334;11.190;2023-05-14T15:24:10;0.93;;;0.80;;